Time;durP1;ratioP1;P1;durP2;ratioP2;P2;SDS_P1;SDS_P2;PMS_P1;PMS_P2;Temp;Humidity;BMP_temperature;BMP_pressure;BME280_temperature;BME280_humidity;BME280_pressure;Samples;Min_cycle;Max_cycle;Signal;HPM_P1;HPM_P2
2022/07/24 00:01:42;;;;;;;5.45;4.05;;;14.30;25.40;;;;;;5057323;28;20196;-63
2022/07/24 00:04:09;;;;;;;4.80;3.30;;;14.00;37.10;;;;;;5062724;28;20340;-63
2022/07/24 00:06:36;;;;;;;6.60;3.78;;;14.20;34.50;;;;;;5064358;28;20201;-63
2022/07/24 00:09:04;;;;;;;5.55;3.65;;;14.20;38.40;;;;;;5062130;28;20222;-64
2022/07/24 00:11:30;;;;;;;6.22;3.60;;;14.20;39.20;;;;;;5061370;28;20200;-63
2022/07/24 00:13:59;;;;;;;6.65;3.38;;;14.20;39.60;;;;;;5045591;28;20204;-62
2022/07/24 00:16:25;;;;;;;3.92;3.42;;;14.20;40.90;;;;;;5048087;28;20239;-63
2022/07/24 00:18:52;;;;;;;4.85;3.50;;;14.10;40.60;;;;;;5063105;28;20540;-62
2022/07/24 00:21:19;;;;;;;4.10;3.25;;;14.20;41.80;;;;;;5063129;28;20204;-63
2022/07/24 00:23:46;;;;;;;4.88;3.20;;;14.10;43.50;;;;;;5061894;28;20633;-62
2022/07/24 00:26:13;;;;;;;6.50;3.72;;;14.20;49.70;;;;;;5055345;28;20398;-63
2022/07/24 00:28:40;;;;;;;4.07;3.30;;;14.20;50.70;;;;;;5043451;28;20743;-63
2022/07/24 00:31:08;;;;;;;3.03;2.80;;;14.20;47.50;;;;;;5055214;28;20208;-63
2022/07/24 00:33:35;;;;;;;5.50;2.95;;;14.20;52.30;;;;;;5059351;28;20254;-62
2022/07/24 00:36:02;;;;;;;3.92;3.10;;;14.20;49.80;;;;;;5064042;28;20428;-62
2022/07/24 00:38:29;;;;;;;3.80;3.35;;;14.20;49.40;;;;;;5065429;28;20218;-63
2022/07/24 00:40:56;;;;;;;3.97;3.40;;;14.40;55.80;;;;;;5061969;28;20211;-63
2022/07/24 00:43:23;;;;;;;4.63;3.10;;;14.30;53.10;;;;;;5055212;28;20224;-63
2022/07/24 00:45:49;;;;;;;6.57;3.58;;;14.30;54.10;;;;;;5044952;28;20196;-62
2022/07/24 00:48:18;;;;;;;4.90;3.63;;;14.50;55.90;;;;;;5041239;28;20199;-63
2022/07/24 00:50:45;;;;;;;4.18;3.00;;;14.30;53.70;;;;;;5065304;28;20196;-62
2022/07/24 00:53:12;;;;;;;7.30;3.50;;;14.40;52.90;;;;;;5061484;28;20208;-63
2022/07/24 00:55:39;;;;;;;3.35;3.05;;;14.40;49.50;;;;;;5063243;28;20482;-62
2022/07/24 00:58:06;;;;;;;3.95;3.17;;;14.50;52.60;;;;;;5056436;28;20247;-63
2022/07/24 01:00:33;;;;;;;5.85;3.47;;;14.50;46.90;;;;;;5046865;28;20211;-62
2022/07/24 01:03:00;;;;;;;3.70;3.17;;;14.50;47.60;;;;;;5053612;28;20793;-63
2022/07/24 01:05:29;;;;;;;4.70;3.20;;;14.50;43.80;;;;;;5058428;28;20318;-63
2022/07/24 01:07:55;;;;;;;4.93;3.50;;;14.50;40.50;;;;;;5063970;28;20211;-63
2022/07/24 01:10:22;;;;;;;3.90;2.90;;;14.50;39.70;;;;;;5066260;28;20326;-63
2022/07/24 01:12:49;;;;;;;4.20;3.40;;;14.50;32.40;;;;;;5054863;28;20199;-63
2022/07/24 01:15:16;;;;;;;4.00;3.50;;;14.70;34.00;;;;;;5067649;28;20610;-62
2022/07/24 01:17:43;;;;;;;5.68;3.50;;;14.40;26.20;;;;;;5043584;28;20228;-63
2022/07/24 01:20:11;;;;;;;4.93;3.20;;;14.30;17.30;;;;;;5045420;28;20644;-63
2022/07/24 01:22:40;;;;;;;4.85;3.35;;;14.20;20.90;;;;;;5060042;28;20204;-63
2022/07/24 01:25:07;;;;;;;4.85;3.60;;;14.20;28.20;;;;;;5066142;28;20715;-62
2022/07/24 01:27:34;;;;;;;3.25;2.95;;;14.30;29.90;;;;;;5065761;28;20418;-62
2022/07/24 01:30:01;;;;;;;7.22;3.40;;;14.20;23.20;;;;;;5052473;28;20431;-63
2022/07/24 01:32:28;;;;;;;6.30;3.20;;;14.10;26.10;;;;;;5040583;28;20212;-63
2022/07/24 01:34:55;;;;;;;3.20;2.70;;;14.20;29.60;;;;;;5049782;28;20424;-62
2022/07/24 01:37:22;;;;;;;3.38;3.08;;;14.30;29.80;;;;;;5066754;28;20215;-62
2022/07/24 01:39:50;;;;;;;4.15;3.15;;;14.10;25.10;;;;;;5062995;28;20195;-63
2022/07/24 01:42:19;;;;;;;4.28;3.38;;;14.10;23.90;;;;;;5067713;28;20259;-63
2022/07/24 01:44:46;;;;;;;3.05;2.78;;;14.10;34.30;;;;;;5051112;28;20221;-62
2022/07/24 01:47:12;;;;;;;6.65;3.17;;;14.20;27.50;;;;;;5069090;28;20189;-63
2022/07/24 01:49:39;;;;;;;3.75;3.08;;;14.00;30.20;;;;;;5041921;28;20212;-62
2022/07/24 01:52:06;;;;;;;3.40;2.70;;;14.00;32.90;;;;;;5043306;28;20813;-63
2022/07/24 01:54:33;;;;;;;6.40;3.33;;;14.00;41.60;;;;;;5065247;28;20597;-63
2022/07/24 01:57:01;;;;;;;4.88;2.85;;;14.20;48.80;;;;;;5064077;28;20313;-63
2022/07/24 01:59:28;;;;;;;3.40;3.10;;;14.00;45.90;;;;;;5056410;28;20553;-63
2022/07/24 02:01:54;;;;;;;3.60;3.22;;;10.80;50.10;;;;;;5048851;28;20725;-63
2022/07/24 02:04:21;;;;;;;4.13;3.28;;;14.10;49.20;;;;;;5042010;28;20700;-63
2022/07/24 02:06:48;;;;;;;3.85;3.00;;;14.10;51.00;;;;;;5051183;28;20201;-63
2022/07/24 02:09:15;;;;;;;5.60;3.10;;;14.10;51.10;;;;;;5065788;28;20200;-63
2022/07/24 02:11:42;;;;;;;4.15;3.28;;;14.10;50.80;;;;;;5062149;28;20192;-63
2022/07/24 02:14:10;;;;;;;3.05;2.75;;;14.10;52.80;;;;;;5063876;28;20317;-62
2022/07/24 02:16:37;;;;;;;5.32;3.30;;;14.20;52.60;;;;;;5055102;28;20231;-62
2022/07/24 02:19:04;;;;;;;4.43;3.00;;;14.30;51.70;;;;;;5065518;28;20774;-63
2022/07/24 02:21:30;;;;;;;4.85;3.00;;;14.10;43.70;;;;;;5028854;28;20223;-63
2022/07/24 02:23:57;;;;;;;4.97;2.45;;;14.10;40.10;;;;;;5052282;28;20725;-63
2022/07/24 02:26:24;;;;;;;5.80;2.80;;;14.30;39.70;;;;;;5063005;28;20859;-62
2022/07/24 02:28:51;;;;;;;7.10;3.05;;;15.00;36.10;;;;;;5065563;28;20448;-62
2022/07/24 02:31:19;;;;;;;3.65;2.60;;;14.10;32.10;;;;;;5062002;28;20208;-62
2022/07/24 02:33:46;;;;;;;2.95;2.60;;;14.00;30.40;;;;;;5050843;28;20417;-62
2022/07/24 02:36:13;;;;;;;5.00;2.40;;;14.10;32.00;;;;;;5040877;28;20204;-63
2022/07/24 02:38:41;;;;;;;3.33;2.88;;;14.00;27.30;;;;;;5048845;28;20504;-62
2022/07/24 02:41:08;;;;;;;3.72;2.90;;;14.00;28.20;;;;;;5066384;28;20405;-63
2022/07/24 02:43:35;;;;;;;3.97;2.63;;;13.90;27.90;;;;;;5061517;28;20436;-63
2022/07/24 02:46:02;;;;;;;3.65;2.95;;;13.90;38.30;;;;;;5062051;28;20208;-62
2022/07/24 02:48:30;;;;;;;3.83;2.83;;;14.40;56.10;;;;;;5060152;28;20200;-62
2022/07/24 02:50:57;;;;;;;3.92;2.97;;;14.00;53.00;;;;;;5041598;28;20232;-63
2022/07/24 02:53:24;;;;;;;3.83;3.47;;;14.00;53.90;;;;;;5046205;28;20200;-62
2022/07/24 02:55:50;;;;;;;3.40;2.88;;;14.10;58.20;;;;;;5058808;28;20206;-62
2022/07/24 02:58:17;;;;;;;5.80;3.03;;;14.00;56.00;;;;;;5066865;28;20197;-62
2022/07/24 03:00:44;;;;;;;3.45;2.65;;;14.00;58.10;;;;;;5063859;28;20219;-62
2022/07/24 03:03:11;;;;;;;6.70;3.15;;;14.10;59.40;;;;;;5069849;28;20926;-63
2022/07/24 03:05:39;;;;;;;5.57;3.10;;;14.10;61.80;;;;;;5041182;28;20255;-63
2022/07/24 03:08:06;;;;;;;3.40;2.80;;;14.10;66.00;;;;;;5069610;28;20197;-63
2022/07/24 03:10:33;;;;;;;3.75;2.97;;;14.10;67.30;;;;;;5054110;28;20199;-62
2022/07/24 03:13:00;;;;;;;7.75;3.20;;;14.10;58.10;;;;;;5053542;28;20208;-62
2022/07/24 03:15:27;;;;;;;6.70;3.30;;;14.10;56.90;;;;;;5064341;28;20212;-62
2022/07/24 03:17:56;;;;;;;3.55;3.25;;;14.10;57.10;;;;;;5060040;28;20204;-63
2022/07/24 03:20:25;;;;;;;5.85;3.47;;;14.40;59.20;;;;;;5056787;28;20204;-63
2022/07/24 03:22:54;;;;;;;6.13;3.38;;;13.90;64.90;;;;;;5047974;28;20212;-63
2022/07/24 03:25:21;;;;;;;4.22;3.13;;;14.20;61.80;;;;;;5054069;28;20223;-62
2022/07/24 03:27:48;;;;;;;5.55;3.17;;;14.20;58.10;;;;;;5057445;28;20308;-63
2022/07/24 03:30:16;;;;;;;5.57;3.42;;;14.10;55.00;;;;;;5068332;28;20196;-62
2022/07/24 03:32:43;;;;;;;5.93;3.63;;;14.00;66.50;;;;;;5053951;28;21024;-63
2022/07/24 03:35:10;;;;;;;5.75;3.47;;;14.10;62.70;;;;;;5070119;28;20205;-63
2022/07/24 03:37:37;;;;;;;3.95;2.95;;;14.00;66.50;;;;;;5038291;28;20212;-62
2022/07/24 03:40:07;;;;;;;5.53;3.28;;;13.50;64.00;;;;;;5053528;28;20208;-63
2022/07/24 03:42:34;;;;;;;4.13;3.28;;;14.10;60.20;;;;;;5065631;28;20798;-62
2022/07/24 03:45:01;;;;;;;5.30;3.35;;;14.10;62.00;;;;;;5054189;28;20220;-62
2022/07/24 03:47:27;;;;;;;5.35;3.42;;;14.10;65.30;;;;;;5067523;28;20189;-63
2022/07/24 03:49:54;;;;;;;7.55;3.50;;;14.20;67.40;;;;;;5043641;28;20531;-62
2022/07/24 03:52:21;;;;;;;3.58;2.92;;;;;;;;;;5057849;28;20658;-63
2022/07/24 03:54:48;;;;;;;5.10;3.05;;;14.20;68.40;;;;;;5060342;28;20269;-62
2022/07/24 03:57:16;;;;;;;4.55;3.10;;;14.20;65.10;;;;;;5056985;28;20213;-62
2022/07/24 03:59:43;;;;;;;6.75;3.85;;;15.00;62.10;;;;;;5058723;28;20254;-63
2022/07/24 04:02:10;;;;;;;6.45;3.00;;;14.40;68.80;;;;;;5067478;28;20200;-63
2022/07/24 04:04:37;;;;;;;5.47;3.50;;;14.20;64.00;;;;;;5052196;28;20455;-63
2022/07/24 04:07:03;;;;;;;5.15;3.13;;;14.30;66.20;;;;;;5070845;28;20199;-62
2022/07/24 04:09:30;;;;;;;6.72;3.38;;;14.30;62.70;;;;;;5042615;28;20219;-62
2022/07/24 04:11:57;;;;;;;5.53;3.25;;;14.40;65.60;;;;;;5053830;28;20341;-63
2022/07/24 04:14:25;;;;;;;4.07;3.00;;;14.40;65.50;;;;;;5056678;28;20224;-63
2022/07/24 04:16:52;;;;;;;5.43;3.40;;;14.40;64.60;;;;;;5059769;28;20449;-63
2022/07/24 04:19:19;;;;;;;5.30;3.10;;;14.30;72.10;;;;;;5057960;28;20195;-62
2022/07/24 04:21:45;;;;;;;4.63;3.20;;;14.70;71.00;;;;;;5062089;28;20191;-63
2022/07/24 04:24:13;;;;;;;5.38;2.95;;;;;;;;;;5048804;28;20196;-63
2022/07/24 04:26:40;;;;;;;4.97;3.25;;;14.60;65.10;;;;;;5058423;28;20207;-63
2022/07/24 04:29:06;;;;;;;6.85;3.50;;;14.70;68.60;;;;;;5055800;28;20204;-62
2022/07/24 04:31:34;;;;;;;4.43;3.00;;;14.60;65.30;;;;;;5050937;28;20326;-63
2022/07/24 04:34:01;;;;;;;5.40;3.22;;;14.70;65.10;;;;;;5066215;28;20283;-63
2022/07/24 04:36:28;;;;;;;5.00;3.30;;;14.80;68.50;;;;;;5063096;28;20408;-64
2022/07/24 04:38:55;;;;;;;4.18;3.15;;;14.90;65.70;;;;;;5063044;28;20208;-62
2022/07/24 04:41:21;;;;;;;5.90;3.40;;;14.90;65.50;;;;;;5039876;28;20432;-62
2022/07/24 04:43:49;;;;;;;4.78;3.38;;;15.00;68.00;;;;;;5058053;28;20720;-63
2022/07/24 04:46:16;;;;;;;4.30;2.70;;;15.00;68.10;;;;;;5058811;28;20230;-63
2022/07/24 04:48:44;;;;;;;6.75;2.83;;;15.20;74.40;;;;;;5070408;28;20201;-63
2022/07/24 04:51:11;;;;;;;5.07;3.28;;;;;;;;;;5057521;28;20239;-63
2022/07/24 04:53:38;;;;;;;3.60;3.08;;;15.20;74.10;;;;;;5061622;28;20771;-63
2022/07/24 04:56:06;;;;;;;3.53;2.63;;;15.30;75.30;;;;;;5044416;28;20231;-62
2022/07/24 04:58:32;;;;;;;7.50;2.80;;;15.40;75.60;;;;;;5064381;28;20243;-63
2022/07/24 05:00:59;;;;;;;5.78;2.42;;;15.50;76.90;;;;;;5053266;28;20488;-63
2022/07/24 05:03:26;;;;;;;5.13;3.40;;;15.60;76.40;;;;;;5065642;28;20201;-62
2022/07/24 05:05:54;;;;;;;2.83;2.45;;;15.60;77.10;;;;;;5069115;28;20221;-63
2022/07/24 05:08:21;;;;;;;6.82;2.70;;;15.60;75.10;;;;;;5063133;28;20231;-63
2022/07/24 05:10:48;;;;;;;3.80;2.60;;;15.70;72.90;;;;;;5045381;28;20214;-63
2022/07/24 05:13:15;;;;;;;6.43;3.28;;;14.60;76.20;;;;;;5066332;28;20862;-63
2022/07/24 05:15:41;;;;;;;5.40;2.60;;;15.90;74.40;;;;;;5056669;28;20591;-63
2022/07/24 05:18:08;;;;;;;3.03;2.50;;;15.90;75.00;;;;;;5068205;28;20208;-63
2022/07/24 05:20:35;;;;;;;5.47;2.60;;;15.90;76.50;;;;;;5063572;28;20189;-63
2022/07/24 05:23:03;;;;;;;4.00;2.30;;;16.30;79.50;;;;;;5055662;28;20580;-62
2022/07/24 05:25:30;;;;;;;7.30;2.65;;;16.10;84.40;;;;;;5043899;28;20534;-63
2022/07/24 05:27:57;;;;;;;5.32;2.38;;;16.00;80.00;;;;;;5058861;28;20558;-63
2022/07/24 05:30:24;;;;;;;5.63;2.13;;;16.10;77.30;;;;;;5065810;28;20192;-63
2022/07/24 05:32:50;;;;;;;2.70;2.20;;;15.90;75.70;;;;;;5053922;28;20200;-63
2022/07/24 05:35:17;;;;;;;3.00;2.20;;;16.10;73.60;;;;;;5060384;28;20215;-63
2022/07/24 05:37:44;;;;;;;3.28;2.45;;;16.10;67.90;;;;;;5060998;28;20511;-64
2022/07/24 05:40:13;;;;;;;2.75;2.17;;;17.20;68.30;;;;;;5063526;28;20197;-63
2022/07/24 05:42:40;;;;;;;2.25;2.05;;;17.60;63.40;;;;;;5042845;28;20844;-63
2022/07/24 05:45:07;;;;;;;3.08;2.10;;;16.30;61.20;;;;;;5067990;28;20229;-63
2022/07/24 05:47:37;;;;;;;6.75;2.65;;;16.30;58.90;;;;;;5053840;28;20443;-64
2022/07/24 05:50:08;;;;;;;3.33;2.15;;;16.40;56.00;;;;;;5069459;28;20360;-63
2022/07/24 05:52:35;;;;;;;2.20;2.00;;;16.40;53.60;;;;;;5064973;28;20297;-63
2022/07/24 05:55:03;;;;;;;5.60;2.10;;;16.50;49.60;;;;;;5069065;28;20203;-63
2022/07/24 05:57:31;;;;;;;3.67;2.40;;;16.80;44.60;;;;;;5030544;28;20208;-63
2022/07/24 05:59:58;;;;;;;3.75;2.22;;;16.50;38.60;;;;;;5067952;28;20572;-63
2022/07/24 06:02:25;;;;;;;2.65;2.08;;;16.60;32.50;;;;;;5022125;28;20837;-63
2022/07/24 06:04:52;;;;;;;2.67;2.00;;;16.60;30.00;;;;;;5057711;28;20242;-63
2022/07/24 06:07:19;;;;;;;3.20;1.85;;;16.60;30.00;;;;;;5049439;28;20227;-62
2022/07/24 06:09:45;;;;;;;2.50;1.90;;;16.70;28.80;;;;;;5064114;28;20204;-63
2022/07/24 06:12:12;;;;;;;1.65;1.55;;;16.70;26.80;;;;;;5043379;28;20204;-63
2022/07/24 06:14:40;;;;;;;2.80;2.03;;;16.80;21.10;;;;;;5039861;28;20228;-63
2022/07/24 06:17:07;;;;;;;3.63;1.90;;;16.60;15.70;;;;;;5045554;28;20685;-63
2022/07/24 06:19:34;;;;;;;4.82;1.90;;;16.80;15.60;;;;;;5063695;28;20932;-63
2022/07/24 06:22:01;;;;;;;4.43;2.05;;;16.90;8.60;;;;;;5050395;28;20405;-63
2022/07/24 06:24:27;;;;;;;3.28;2.00;;;16.90;1.00;;;;;;5046777;28;20235;-62
2022/07/24 06:26:54;;;;;;;5.93;2.17;;;17.10;1.00;;;;;;5028607;28;20270;-63
2022/07/24 06:29:21;;;;;;;3.90;2.00;;;17.10;1.00;;;;;;5046633;28;20201;-62
2022/07/24 06:31:49;;;;;;;2.75;2.00;;;17.20;1.00;;;;;;5062779;28;20192;-63
2022/07/24 06:34:16;;;;;;;2.08;1.88;;;17.20;1.00;;;;;;5047719;28;20204;-63
2022/07/24 06:36:43;;;;;;;2.67;1.90;;;17.30;1.00;;;;;;5059857;28;20778;-63
2022/07/24 06:39:09;;;;;;;4.35;1.90;;;17.40;1.00;;;;;;5051856;28;20224;-63
2022/07/24 06:41:36;;;;;;;2.17;1.98;;;17.40;1.00;;;;;;5037201;28;20212;-63
2022/07/24 06:44:03;;;;;;;5.18;2.05;;;17.60;1.00;;;;;;5050160;28;20207;-63
2022/07/24 06:46:30;;;;;;;3.33;2.10;;;17.50;1.00;;;;;;5071214;28;20239;-63
2022/07/24 06:48:58;;;;;;;2.35;1.92;;;17.70;1.00;;;;;;5025081;28;20688;-63
2022/07/24 06:51:25;;;;;;;2.22;1.85;;;17.70;1.00;;;;;;5066207;28;20589;-63
2022/07/24 06:53:52;;;;;;;3.20;1.90;;;17.80;1.00;;;;;;5049664;28;20203;-63
2022/07/24 06:56:19;;;;;;;3.10;2.00;;;17.80;1.00;;;;;;5061377;28;20211;-63
2022/07/24 06:58:46;;;;;;;3.67;1.70;;;17.70;1.00;;;;;;5031792;28;20723;-63
2022/07/24 07:01:13;;;;;;;2.30;2.10;;;17.90;1.00;;;;;;5058863;28;20189;-63
2022/07/24 07:03:39;;;;;;;3.42;2.25;;;17.80;1.00;;;;;;5045928;28;20620;-63
2022/07/24 07:06:08;;;;;;;3.25;1.95;;;17.80;1.00;;;;;;5051477;28;20710;-63
2022/07/24 07:08:34;;;;;;;10.13;2.03;;;17.90;1.00;;;;;;5061492;28;20203;-64
2022/07/24 07:11:01;;;;;;;4.60;2.38;;;;;;;;;;5047593;28;20666;-63
2022/07/24 07:13:28;;;;;;;2.63;2.10;;;18.00;1.00;;;;;;5028561;28;20243;-63
2022/07/24 07:15:55;;;;;;;3.10;2.50;;;18.10;1.00;;;;;;5057433;28;20889;-63
2022/07/24 07:18:22;;;;;;;2.13;1.95;;;;;;;;;;5047578;28;20872;-63
2022/07/24 07:20:53;;;;;;;2.20;1.83;;;19.60;1.00;;;;;;5046035;28;20224;-63
2022/07/24 07:23:22;;;;;;;6.40;2.22;;;18.30;1.00;;;;;;5035710;28;20312;-63
2022/07/24 07:25:49;;;;;;;6.22;2.55;;;;;;;;;;5049166;28;20227;-63
2022/07/24 07:28:16;;;;;;;3.10;2.10;;;18.50;1.00;;;;;;5017937;28;20722;-63
2022/07/24 07:30:42;;;;;;;2.13;1.85;;;18.50;1.00;;;;;;5024782;28;20220;-63
2022/07/24 07:33:09;;;;;;;4.80;2.13;;;18.50;1.00;;;;;;5043764;28;20311;-63
2022/07/24 07:35:36;;;;;;;2.22;1.92;;;18.60;1.00;;;;;;5047011;28;20223;-63
2022/07/24 07:38:03;;;;;;;4.32;2.53;;;18.60;1.00;;;;;;5054981;28;20201;-63
2022/07/24 07:40:31;;;;;;;2.15;1.90;;;18.90;1.00;;;;;;5061561;28;20537;-63
2022/07/24 07:42:58;;;;;;;3.58;2.15;;;18.80;1.00;;;;;;5022267;28;20527;-63
2022/07/24 07:45:25;;;;;;;10.20;2.58;;;18.90;1.00;;;;;;5028051;28;20192;-63
2022/07/24 07:47:52;;;;;;;2.83;2.00;;;18.80;1.00;;;;;;5049815;28;20216;-63
2022/07/24 07:50:19;;;;;;;9.60;2.28;;;19.00;1.00;;;;;;5023946;28;20427;-63
2022/07/24 07:52:46;;;;;;;7.28;2.83;;;19.00;1.00;;;;;;5044019;28;20228;-63
2022/07/24 07:55:12;;;;;;;3.03;2.40;;;18.90;1.00;;;;;;5059285;28;20309;-63
2022/07/24 07:57:43;;;;;;;6.95;2.72;;;19.20;1.00;;;;;;5041536;28;20571;-64
2022/07/24 08:00:11;;;;;;;2.30;2.10;;;19.30;1.00;;;;;;5013506;28;20208;-64
2022/07/24 08:02:38;;;;;;;2.72;2.28;;;;;;;;;;5043729;28;20251;-63
2022/07/24 08:05:06;;;;;;;3.65;2.70;;;19.70;1.00;;;;;;5031902;28;20234;-63
2022/07/24 08:07:33;;;;;;;2.83;2.50;;;19.70;1.00;;;;;;5040346;28;20239;-64
2022/07/24 08:10:00;;;;;;;3.47;2.70;;;19.80;1.00;;;;;;5053885;28;20220;-63
2022/07/24 08:12:27;;;;;;;4.80;2.95;;;19.80;1.00;;;;;;5066854;28;20204;-64
2022/07/24 08:14:56;;;;;;;3.25;2.55;;;;;;;;;;5016642;28;20205;-64
2022/07/24 08:17:23;;;;;;;4.32;2.35;;;20.00;1.00;;;;;;5038286;28;20226;-63
2022/07/24 08:19:50;;;;;;;6.03;2.97;;;;;;;;;;5045490;28;20223;-63
2022/07/24 08:22:17;;;;;;;7.13;3.10;;;20.10;1.00;;;;;;5037695;28;20392;-63
2022/07/24 08:24:43;;;;;;;3.63;2.97;;;20.40;1.00;;;;;;5053450;28;20740;-64
2022/07/24 08:27:10;;;;;;;2.85;2.60;;;20.20;99.90;;;;;;5053260;28;20488;-64
2022/07/24 08:29:37;;;;;;;4.20;2.63;;;20.40;99.90;;;;;;5047419;28;21564;-63
2022/07/24 08:32:06;;;;;;;3.53;2.83;;;20.30;99.90;;;;;;5016541;28;20465;-63
2022/07/24 08:34:33;;;;;;;3.92;2.75;;;20.40;99.90;;;;;;5059471;28;20192;-63
2022/07/24 08:37:00;;;;;;;9.40;2.95;;;20.50;99.90;;;;;;5029391;28;20215;-63
2022/07/24 08:39:26;;;;;;;3.65;2.65;;;19.10;99.90;;;;;;5047421;28;20705;-63
2022/07/24 08:41:53;;;;;;;3.00;2.58;;;20.70;99.90;;;;;;5058473;28;20196;-63
2022/07/24 08:44:20;;;;;;;4.20;2.92;;;20.60;99.90;;;;;;5038488;28;20208;-64
2022/07/24 08:46:47;;;;;;;3.13;2.67;;;20.40;99.90;;;;;;5028154;28;20228;-63
2022/07/24 08:49:16;;;;;;;4.28;2.92;;;20.70;99.90;;;;;;5049671;28;20463;-63
2022/07/24 08:51:44;;;;;;;3.78;2.58;;;20.90;99.90;;;;;;5048959;28;20239;-63
2022/07/24 08:54:12;;;;;;;4.35;2.83;;;21.00;99.90;;;;;;5043283;28;20269;-63
2022/07/24 08:56:40;;;;;;;5.90;3.22;;;21.00;99.90;;;;;;5059246;28;21521;-64
2022/07/24 08:59:16;;;;;;;5.35;3.38;;;21.00;99.90;;;;;;5046557;28;20960;-64
2022/07/24 09:01:43;;;;;;;4.32;3.35;;;21.10;1.00;;;;;;5033198;28;20300;-64
2022/07/24 09:04:39;;;;;;;4.28;3.40;;;21.30;1.00;;;;;;5038449;28;20228;-64
2022/07/24 09:07:08;;;;;;;7.07;3.35;;;21.20;99.90;;;;;;5059155;28;20223;-63
2022/07/24 09:09:35;;;;;;;4.10;3.40;;;21.20;99.90;;;;;;5035396;28;21285;-64
2022/07/24 09:12:08;;;;;;;4.18;3.78;;;21.30;1.00;;;;;;5052527;28;20227;-64
2022/07/24 09:14:37;;;;;;;4.45;3.42;;;21.30;1.00;;;;;;5047159;28;20216;-64
2022/07/24 09:17:05;;;;;;;5.05;3.15;;;21.30;1.00;;;;;;5030907;28;20200;-64
2022/07/24 09:19:45;;;;;;;3.72;3.42;;;21.40;1.00;;;;;;5030704;28;20208;-64
2022/07/24 09:22:23;;;;;;;4.18;3.78;;;21.50;1.00;;;;;;5064221;28;20865;-64
2022/07/24 09:25:08;;;;;;;4.95;3.50;;;21.60;1.00;;;;;;5040159;28;20231;-64
2022/07/24 09:27:35;;;;;;;4.55;3.70;;;21.60;1.00;;;;;;5062509;28;20220;-64
2022/07/24 09:30:03;;;;;;;4.72;3.95;;;21.80;99.90;;;;;;5049700;28;20386;-64
2022/07/24 09:32:30;;;;;;;4.07;3.53;;;21.90;1.00;;;;;;5044286;28;20349;-64
2022/07/24 09:34:58;;;;;;;6.70;3.50;;;22.00;99.90;;;;;;5047437;28;20486;-64
2022/07/24 09:37:27;;;;;;;4.68;3.92;;;22.00;99.90;;;;;;5063945;28;20202;-64
2022/07/24 09:40:07;;;;;;;7.68;3.78;;;22.10;99.90;;;;;;5044957;28;20281;-64
2022/07/24 09:42:38;;;;;;;6.13;4.13;;;22.20;99.90;;;;;;5059254;28;20228;-64
2022/07/24 09:45:08;;;;;;;4.70;4.00;;;22.30;1.00;;;;;;5058423;28;20197;-64
2022/07/24 09:47:36;;;;;;;5.07;3.78;;;22.60;1.00;;;;;;5023666;28;20225;-64
2022/07/24 09:50:14;;;;;;;8.75;3.80;;;22.50;1.00;;;;;;5052505;28;20683;-64
2022/07/24 09:52:43;;;;;;;4.88;3.78;;;22.60;1.00;;;;;;5060521;28;20223;-64
2022/07/24 09:55:24;;;;;;;7.47;4.15;;;22.70;1.00;;;;;;5049466;28;20301;-64
2022/07/24 09:57:52;;;;;;;5.00;4.05;;;22.80;1.00;;;;;;5038959;28;20471;-64
2022/07/24 10:00:20;;;;;;;4.18;3.78;;;22.80;1.00;;;;;;5056556;28;20207;-64
2022/07/24 10:02:47;;;;;;;7.95;3.72;;;22.80;1.00;;;;;;5053704;28;20203;-65
2022/07/24 10:05:15;;;;;;;5.32;4.15;;;23.10;1.00;;;;;;5029785;28;20208;-65
2022/07/24 10:07:48;;;;;;;6.13;3.50;;;23.10;99.90;;;;;;5058427;28;20221;-65
2022/07/24 10:10:15;;;;;;;5.93;4.07;;;23.20;99.90;;;;;;5043836;28;20235;-64
2022/07/24 10:12:45;;;;;;;6.07;3.88;;;23.30;51.10;;;;;;5060961;28;20246;-65
2022/07/24 10:15:12;;;;;;;4.30;3.65;;;23.60;1.00;;;;;;5058055;28;20573;-65
2022/07/24 10:18:13;;;;;;;4.55;3.63;;;23.70;1.00;;;;;;5033469;28;20215;-65
2022/07/24 10:20:43;;;;;;;5.70;3.72;;;23.60;1.00;;;;;;5033977;28;21104;-63
2022/07/24 10:23:22;;;;;;;3.70;3.40;;;24.40;1.00;;;;;;5048971;28;20323;-63
2022/07/24 10:25:59;;;;;;;5.88;3.70;;;24.00;1.00;;;;;;5035252;28;20216;-63
2022/07/24 10:28:38;;;;;;;3.63;3.30;;;24.10;99.90;;;;;;5062524;28;20584;-63
2022/07/24 10:31:07;;;;;;;4.38;3.70;;;24.00;99.90;;;;;;5058268;28;20188;-62
2022/07/24 10:33:36;;;;;;;9.63;4.50;;;23.90;99.90;;;;;;5046654;28;20709;-63
2022/07/24 10:36:09;;;;;;;4.70;4.30;;;24.10;99.90;;;;;;5025790;28;20204;-63
2022/07/24 10:38:41;;;;;;;3.97;3.58;;;21.00;99.90;;;;;;5031238;28;20243;-63
2022/07/24 10:41:15;;;;;;;4.43;3.80;;;24.00;99.90;;;;;;5044742;28;20260;-63
2022/07/24 10:44:01;;;;;;;4.63;3.72;;;24.00;99.90;;;;;;5038362;28;20227;-63
2022/07/24 10:46:28;;;;;;;6.50;3.90;;;23.90;99.90;;;;;;5062470;28;20261;-63
2022/07/24 10:48:54;;;;;;;8.93;4.47;;;23.90;99.90;;;;;;5047426;28;20204;-63
2022/07/24 10:51:24;;;;;;;7.50;4.45;;;24.00;99.90;;;;;;5038920;28;20235;-63
2022/07/24 10:53:56;;;;;;;4.72;4.18;;;24.80;99.90;;;;;;5059667;28;20227;-64
2022/07/24 10:56:26;;;;;;;5.82;4.07;;;24.40;99.90;;;;;;5058716;28;20196;-63
2022/07/24 10:58:56;;;;;;;4.15;3.78;;;24.50;1.00;;;;;;5054508;28;20212;-63
2022/07/24 11:01:42;;;;;;;4.60;3.97;;;24.60;1.00;;;;;;5066958;28;20292;-63
2022/07/24 11:04:27;;;;;;;7.93;4.50;;;24.60;1.00;;;;;;5058420;28;20203;-63
2022/07/24 11:06:55;;;;;;;3.70;3.40;;;24.60;1.00;;;;;;5043775;28;20224;-63
2022/07/24 11:09:25;;;;;;;5.88;4.40;;;24.50;1.00;;;;;;5056346;28;20213;-63
2022/07/24 11:12:06;;;;;;;4.97;4.55;;;24.50;1.00;;;;;;5061843;28;20856;-63
2022/07/24 11:14:50;;;;;;;5.10;4.10;;;24.00;1.00;;;;;;5040678;28;20207;-63
2022/07/24 11:17:39;;;;;;;5.07;3.78;;;24.60;1.00;;;;;;5066477;28;20204;-64
2022/07/24 11:20:08;;;;;;;4.13;3.72;;;24.80;1.00;;;;;;5051086;28;20223;-63
2022/07/24 11:22:40;;;;;;;6.13;3.97;;;24.40;1.00;;;;;;5028452;28;20579;-64
2022/07/24 11:25:15;;;;;;;4.05;3.70;;;25.00;1.00;;;;;;5065821;28;20712;-64
2022/07/24 11:27:50;;;;;;;3.78;3.47;;;25.10;1.00;;;;;;5063864;28;20347;-63
2022/07/24 11:30:19;;;;;;;7.60;3.97;;;25.20;1.00;;;;;;5043461;28;20212;-64
2022/07/24 11:32:46;;;;;;;5.00;3.35;;;25.10;99.90;;;;;;5066704;28;20425;-64
2022/07/24 11:35:13;;;;;;;6.05;3.70;;;25.10;99.90;;;;;;5053456;28;20223;-63
2022/07/24 11:37:41;;;;;;;6.05;3.60;;;25.20;99.90;;;;;;5044125;28;20965;-64
2022/07/24 11:40:09;;;;;;;5.35;3.83;;;25.20;1.00;;;;;;5039451;28;20196;-63
2022/07/24 11:42:37;;;;;;;5.43;3.90;;;25.10;1.00;;;;;;5044186;28;20204;-64
2022/07/24 11:45:05;;;;;;;4.03;3.40;;;25.30;99.90;;;;;;5059042;28;20203;-63
2022/07/24 11:47:32;;;;;;;6.60;4.32;;;25.30;99.90;;;;;;5041727;28;20224;-63
2022/07/24 11:50:02;;;;;;;4.97;4.40;;;25.30;99.90;;;;;;5069795;28;23270;-63
2022/07/24 11:52:32;;;;;;;4.43;4.03;;;25.40;99.90;;;;;;5040896;28;20228;-63
2022/07/24 11:55:01;;;;;;;4.47;3.28;;;25.10;99.90;;;;;;5036415;28;20215;-64
2022/07/24 11:57:30;;;;;;;4.65;3.80;;;25.30;99.90;;;;;;5047652;28;20705;-63
2022/07/24 11:59:59;;;;;;;4.38;3.50;;;25.30;99.90;;;;;;5059693;28;20202;-63
2022/07/24 12:02:26;;;;;;;3.90;3.53;;;25.50;99.90;;;;;;5043097;28;20235;-63
2022/07/24 12:04:54;;;;;;;7.82;3.88;;;24.30;99.90;;;;;;5066500;28;20301;-63
2022/07/24 12:07:23;;;;;;;3.95;3.55;;;25.30;99.90;;;;;;5052180;28;20235;-64
2022/07/24 12:09:51;;;;;;;6.15;3.60;;;25.30;99.90;;;;;;5058133;28;20842;-63
2022/07/24 12:12:26;;;;;;;4.72;3.90;;;25.30;99.90;;;;;;5026523;28;20228;-63
2022/07/24 12:15:01;;;;;;;3.75;3.38;;;25.30;99.90;;;;;;5064837;28;20646;-63
2022/07/24 12:17:30;;;;;;;4.05;3.53;;;25.30;99.90;;;;;;5047953;28;20316;-64
2022/07/24 12:19:59;;;;;;;5.00;4.13;;;25.30;99.90;;;;;;5049701;28;20200;-63
2022/07/24 12:22:28;;;;;;;7.07;3.58;;;25.30;99.90;;;;;;5048401;28;20208;-64
2022/07/24 12:24:57;;;;;;;6.90;3.55;;;25.30;99.90;;;;;;5053751;28;20209;-64
2022/07/24 12:27:39;;;;;;;4.00;3.42;;;25.30;99.90;;;;;;5033332;28;20221;-64
2022/07/24 12:30:21;;;;;;;6.90;4.13;;;25.30;99.90;;;;;;5060750;28;20223;-63
2022/07/24 12:33:01;;;;;;;3.45;3.00;;;25.60;99.90;;;;;;5049620;28;20223;-63
2022/07/24 12:35:30;;;;;;;4.40;2.72;;;26.30;99.90;;;;;;5049431;28;20224;-63
2022/07/24 12:37:58;;;;;;;3.88;2.90;;;25.50;91.00;;;;;;5053412;28;20346;-63
2022/07/24 12:40:30;;;;;;;3.30;3.00;;;25.50;99.90;;;;;;5044071;28;20211;-63
2022/07/24 12:42:59;;;;;;;3.90;3.33;;;;;;;;;;5036644;28;20207;-63
2022/07/24 12:45:26;;;;;;;4.97;3.17;;;25.60;65.60;;;;;;5046585;28;20227;-61
2022/07/24 12:48:19;;;;;;;5.68;3.20;;;25.60;38.60;;;;;;5036143;28;20235;-62
2022/07/24 12:51:01;;;;;;;5.07;3.08;;;25.60;82.60;;;;;;5057045;28;20202;-62
2022/07/24 12:53:29;;;;;;;3.08;2.78;;;25.60;59.90;;;;;;5026347;28;21044;-62
2022/07/24 12:56:08;;;;;;;5.47;3.00;;;26.50;1.00;;;;;;5053108;28;20203;-62
2022/07/24 12:59:00;;;;;;;4.90;3.40;;;25.70;1.00;;;;;;5037454;28;20772;-62
2022/07/24 13:01:29;;;;;;;4.43;3.20;;;25.80;1.00;;;;;;5052032;28;20299;-62